Terminal Aerodrome Forecast
Issued by NWS Jackson, KY

Home | Current Version | Previous Version | Text Only | Print | Product List | Glossary On
Versions: 1 2 3 4 5 6 7 8 9 10 11 12 13 14 15 16 17 18
000
FTUS43 KJKL 292300
TAFJKL
TAF
KJKL 292338Z 3000/3024 VRB03KT P6SM FEW040 SCT080
     FM301000 00000KT 4SM BR SKC
     FM301300 VRB05KT P6SM SCT050=

USA.gov is the U.S. government's official web portal to all federal, state and local government web resources and services.